createdAt,value
2018-10-18T00:02:08.481Z,9.90
2018-10-18T00:04:36.798Z,9.80
2018-10-18T00:07:05.271Z,9.70
2018-10-18T00:09:33.630Z,9.70
2018-10-18T00:12:01.979Z,9.80
2018-10-18T00:14:30.270Z,9.70
2018-10-18T00:16:58.562Z,9.70
2018-10-18T00:19:26.911Z,9.70
2018-10-18T00:21:55.289Z,9.60
2018-10-18T00:24:23.706Z,9.50
2018-10-18T00:26:52.134Z,9.50
2018-10-18T00:29:20.485Z,9.40
2018-10-18T00:31:48.775Z,9.60
2018-10-18T00:34:17.081Z,9.50
2018-10-18T00:36:45.416Z,9.50
2018-10-18T00:39:14.023Z,9.50
2018-10-18T00:41:42.781Z,9.50
2018-10-18T00:44:11.147Z,9.50
2018-10-18T00:46:39.483Z,9.40
2018-10-18T00:49:07.952Z,9.50
2018-10-18T00:51:36.310Z,9.50
2018-10-18T00:54:05.338Z,9.60
2018-10-18T00:56:33.667Z,9.70
2018-10-18T00:59:01.984Z,9.90
2018-10-18T01:01:30.341Z,9.90
2018-10-18T01:03:58.699Z,9.90
2018-10-18T01:06:27.053Z,9.90
2018-10-18T01:08:55.414Z,9.80
2018-10-18T01:11:23.745Z,9.70
2018-10-18T01:13:52.060Z,9.60
2018-10-18T01:16:20.386Z,9.50
2018-10-18T01:18:48.680Z,9.40
2018-10-18T01:21:17.127Z,9.20
2018-10-18T01:23:45.484Z,9.20
2018-10-18T01:26:13.970Z,9.10
2018-10-18T01:28:42.164Z,9.10
2018-10-18T01:31:10.569Z,9.20
2018-10-18T01:33:39.112Z,9.20
2018-10-18T01:36:07.528Z,9.30
2018-10-18T01:38:35.843Z,9.30
2018-10-18T01:41:04.167Z,9.30
2018-10-18T01:43:32.581Z,9.30
2018-10-18T01:46:00.911Z,9.40
2018-10-18T01:48:29.417Z,9.40
2018-10-18T01:50:57.793Z,9.50
2018-10-18T01:53:26.109Z,9.70
2018-10-18T01:55:54.469Z,10.00
2018-10-18T01:58:22.776Z,10.20
2018-10-18T02:00:51.135Z,10.30
2018-10-18T02:03:19.497Z,10.30
2018-10-18T02:05:47.823Z,10.20
2018-10-18T02:08:16.265Z,10.10
2018-10-18T02:10:44.518Z,10.00
2018-10-18T02:13:12.873Z,9.80
2018-10-18T02:15:41.214Z,9.80
2018-10-18T02:18:09.745Z,9.70
2018-10-18T02:20:37.982Z,9.70
2018-10-18T02:23:06.398Z,9.70
2018-10-18T02:25:34.756Z,9.70
2018-10-18T02:28:03.146Z,9.70
2018-10-18T02:30:31.505Z,9.90
2018-10-18T02:32:59.978Z,9.90
2018-10-18T02:35:28.368Z,9.90
2018-10-18T02:37:56.700Z,9.80
2018-10-18T02:40:25.208Z,9.60
2018-10-18T02:42:53.582Z,9.50
2018-10-18T02:45:21.903Z,9.30
2018-10-18T02:47:50.272Z,9.20
2018-10-18T02:50:18.596Z,9.20
2018-10-18T02:52:46.918Z,9.20
2018-10-18T02:55:15.234Z,9.20
2018-10-18T02:57:43.537Z,9.20
2018-10-18T03:00:11.987Z,9.10
2018-10-18T03:02:40.245Z,9.20
2018-10-18T03:05:08.687Z,9.10
2018-10-18T03:07:37.041Z,9.10
2018-10-18T03:10:06.233Z,9.20
2018-10-18T03:12:34.610Z,9.20
2018-10-18T03:15:02.923Z,9.20
2018-10-18T03:17:31.385Z,9.20
2018-10-18T03:19:59.730Z,9.30
2018-10-18T03:22:28.047Z,9.40
2018-10-18T03:24:56.407Z,9.40
2018-10-18T03:27:24.739Z,9.40
2018-10-18T03:29:53.194Z,9.40
2018-10-18T03:32:21.623Z,9.40
2018-10-18T03:34:49.958Z,9.40
2018-10-18T03:37:18.334Z,9.50
2018-10-18T03:39:46.657Z,9.60
2018-10-18T03:42:15.092Z,9.70
2018-10-18T03:44:43.403Z,9.90
2018-10-18T03:47:11.761Z,9.90
2018-10-18T03:49:40.205Z,10.00
2018-10-18T03:52:08.629Z,10.10
2018-10-18T03:54:37.061Z,10.10
2018-10-18T03:57:05.450Z,10.20
2018-10-18T03:59:33.903Z,10.20
2018-10-18T04:02:02.241Z,10.30
2018-10-18T04:04:30.570Z,10.30
2018-10-18T04:06:58.931Z,10.30
2018-10-18T04:09:27.292Z,10.30
2018-10-18T04:11:55.721Z,10.40
2018-10-18T04:14:24.158Z,10.30
2018-10-18T04:16:52.511Z,10.40
2018-10-18T04:19:20.862Z,9.70
2018-10-18T04:21:49.194Z,10.50
2018-10-18T04:24:17.586Z,10.40
2018-10-18T04:26:45.809Z,10.40
2018-10-18T04:29:14.155Z,10.40
2018-10-18T04:31:42.521Z,10.30
2018-10-18T04:34:10.922Z,10.20
2018-10-18T04:36:39.275Z,10.20
2018-10-18T04:39:09.469Z,10.00
2018-10-18T04:41:37.912Z,9.90
2018-10-18T04:44:06.228Z,10.00
2018-10-18T04:46:34.563Z,10.00
2018-10-18T04:49:02.907Z,10.00
2018-10-18T04:51:31.242Z,10.00
2018-10-18T04:53:59.565Z,10.00
2018-10-18T04:56:27.935Z,10.10
2018-10-18T04:58:56.372Z,10.10
2018-10-18T05:01:24.854Z,9.90
2018-10-18T05:03:53.077Z,9.90
2018-10-18T05:06:21.384Z,9.90
2018-10-18T05:08:49.925Z,9.90
2018-10-18T05:11:18.418Z,10.10
2018-10-18T05:13:46.757Z,10.20
2018-10-18T05:16:15.214Z,10.20
2018-10-18T05:18:43.535Z,10.20
2018-10-18T05:21:11.871Z,10.20
2018-10-18T05:23:40.353Z,10.30
2018-10-18T05:26:08.748Z,10.40
2018-10-18T05:28:37.170Z,10.40
2018-10-18T05:31:05.579Z,10.50
2018-10-18T05:33:33.914Z,10.60
2018-10-18T05:36:02.274Z,10.70
2018-10-18T05:38:30.646Z,10.70
2018-10-18T05:40:59.037Z,10.70
2018-10-18T05:43:27.385Z,10.90
2018-10-18T05:45:56.200Z,11.00
2018-10-18T05:48:24.658Z,11.00
2018-10-18T05:50:53.011Z,11.00
2018-10-18T05:53:21.406Z,11.10
2018-10-18T05:55:49.777Z,11.20
2018-10-18T05:58:18.193Z,11.20
2018-10-18T06:00:46.549Z,11.20
2018-10-18T06:03:14.928Z,11.30
2018-10-18T06:05:43.313Z,11.30
2018-10-18T06:08:11.724Z,11.30
2018-10-18T06:10:51.187Z,11.30
2018-10-18T06:13:19.714Z,11.30
2018-10-18T06:15:47.943Z,11.30
2018-10-18T06:18:16.284Z,11.30
2018-10-18T06:20:44.728Z,11.30
2018-10-18T06:23:13.160Z,11.30
2018-10-18T06:25:41.494Z,11.40
2018-10-18T06:28:09.848Z,11.30
2018-10-18T06:30:38.234Z,11.40
2018-10-18T06:33:06.717Z,11.40
2018-10-18T06:35:35.043Z,11.50
2018-10-18T06:38:03.493Z,11.60
2018-10-18T06:40:31.870Z,11.60
2018-10-18T06:43:00.352Z,11.60
2018-10-18T06:45:28.706Z,11.60
2018-10-18T06:47:57.215Z,11.60
2018-10-18T06:50:25.532Z,11.70
2018-10-18T06:52:53.924Z,11.80
2018-10-18T06:55:22.324Z,11.80
2018-10-18T06:57:50.784Z,11.80
2018-10-18T07:00:22.448Z,11.70
2018-10-18T07:02:51.023Z,11.70
2018-10-18T07:05:19.408Z,11.60
2018-10-18T07:07:47.852Z,8.60
2018-10-18T07:10:16.222Z,11.80
2018-10-18T07:12:44.596Z,11.80
2018-10-18T07:15:14.044Z,11.90
2018-10-18T07:17:43.110Z,11.80
2018-10-18T07:20:11.857Z,11.90
2018-10-18T07:22:40.644Z,11.90
2018-10-18T07:25:12.646Z,11.90
2018-10-18T07:27:41.620Z,11.90
2018-10-18T07:30:11.446Z,12.00
2018-10-18T07:32:39.794Z,11.90
2018-10-18T07:35:09.128Z,12.00
2018-10-18T07:37:37.636Z,12.10
2018-10-18T07:40:07.570Z,12.00
2018-10-18T07:42:36.002Z,12.10
2018-10-18T07:45:04.352Z,12.20
2018-10-18T07:47:32.838Z,12.20
2018-10-18T07:50:01.186Z,12.20
2018-10-18T07:52:29.655Z,12.30
2018-10-18T07:54:58.045Z,12.40
2018-10-18T07:57:26.543Z,12.40
2018-10-18T07:59:55.025Z,12.30
2018-10-18T08:02:23.412Z,12.30
2018-10-18T08:04:51.798Z,12.30
2018-10-18T08:07:20.207Z,12.40
2018-10-18T08:09:48.630Z,12.40
2018-10-18T08:12:17.082Z,12.40
2018-10-18T08:14:45.477Z,12.40
2018-10-18T08:17:13.898Z,12.30
2018-10-18T08:19:42.256Z,12.30
2018-10-18T08:22:10.658Z,12.30
2018-10-18T08:24:39.269Z,12.40
2018-10-18T08:27:07.632Z,12.40
2018-10-18T08:29:36.012Z,12.50
2018-10-18T08:32:04.473Z,12.50
2018-10-18T08:34:32.878Z,12.60
2018-10-18T08:37:01.439Z,12.50
2018-10-18T08:39:29.827Z,12.60
2018-10-18T08:41:58.200Z,12.70
2018-10-18T08:44:26.727Z,12.70
2018-10-18T08:46:55.167Z,12.80
2018-10-18T08:49:23.591Z,12.80
2018-10-18T08:51:51.959Z,12.90
2018-10-18T08:54:20.409Z,13.00
2018-10-18T08:56:48.849Z,13.00
2018-10-18T08:59:17.271Z,13.10
2018-10-18T09:01:45.632Z,13.00
2018-10-18T09:04:14.075Z,13.20
2018-10-18T09:06:42.529Z,13.30
2018-10-18T09:09:11.012Z,13.30
2018-10-18T09:11:39.314Z,13.30
2018-10-18T09:14:08.104Z,13.30
2018-10-18T09:16:36.438Z,13.30
2018-10-18T09:19:05.431Z,13.40
2018-10-18T09:21:33.829Z,13.40
2018-10-18T09:24:02.208Z,13.40
2018-10-18T09:26:30.668Z,13.50
2018-10-18T09:28:59.067Z,13.60
2018-10-18T09:31:27.437Z,13.50
2018-10-18T09:33:55.884Z,13.50
2018-10-18T09:36:24.306Z,13.40
2018-10-18T09:38:52.698Z,13.50
2018-10-18T09:41:21.366Z,13.60
2018-10-18T09:43:54.009Z,13.50
2018-10-18T09:46:22.427Z,13.50
2018-10-18T09:48:50.833Z,13.40
2018-10-18T09:51:19.284Z,13.40
2018-10-18T09:53:47.720Z,13.50
2018-10-18T09:56:16.172Z,13.30
2018-10-18T09:58:45.436Z,13.50
2018-10-18T10:01:19.058Z,13.50
2018-10-18T10:03:47.498Z,13.50
2018-10-18T10:06:15.993Z,13.50
2018-10-18T10:08:44.386Z,13.60
2018-10-18T10:11:12.776Z,13.60
2018-10-18T10:13:41.244Z,13.60
2018-10-18T10:16:09.596Z,13.90
2018-10-18T10:18:37.992Z,14.00
2018-10-18T10:21:06.461Z,14.00
2018-10-18T10:23:34.889Z,14.20
2018-10-18T10:26:03.618Z,14.50
2018-10-18T10:28:32.003Z,14.60
2018-10-18T10:31:00.419Z,14.80
2018-10-18T10:33:28.876Z,14.80
2018-10-18T10:35:57.131Z,15.00
2018-10-18T10:38:25.527Z,15.00
2018-10-18T10:40:53.886Z,15.20
2018-10-18T10:43:22.235Z,15.30
2018-10-18T10:45:50.718Z,15.50
2018-10-18T10:48:19.109Z,15.50
2018-10-18T10:50:47.416Z,15.70
2018-10-18T10:53:15.814Z,15.90
2018-10-18T10:55:44.205Z,15.80
2018-10-18T10:58:12.620Z,15.80
2018-10-18T11:01:16.917Z,15.60
2018-10-18T11:03:45.624Z,15.60
2018-10-18T11:06:14.207Z,15.70
2018-10-18T11:08:42.564Z,16.10
2018-10-18T11:11:11.496Z,16.40
2018-10-18T11:13:39.882Z,16.70
2018-10-18T11:16:08.477Z,16.70
2018-10-18T11:18:37.693Z,16.80
2018-10-18T11:21:07.239Z,16.80
2018-10-18T11:23:35.954Z,16.90
2018-10-18T11:26:04.454Z,17.20
2018-10-18T11:28:32.881Z,17.50
2018-10-18T11:31:01.238Z,17.30
2018-10-18T11:33:29.672Z,17.30
2018-10-18T11:35:58.116Z,17.50
2018-10-18T11:38:26.534Z,17.50
2018-10-18T11:40:54.934Z,17.60
2018-10-18T11:43:23.350Z,18.00
2018-10-18T11:45:51.735Z,17.90
2018-10-18T11:48:20.096Z,18.40
2018-10-18T11:50:48.456Z,18.80
2018-10-18T11:53:16.826Z,18.70
2018-10-18T11:55:45.164Z,18.60
2018-10-18T11:58:13.864Z,18.40
2018-10-18T12:00:42.292Z,18.50
2018-10-18T12:03:10.672Z,18.60
2018-10-18T12:05:39.042Z,18.40
2018-10-18T12:08:07.468Z,18.00
2018-10-18T12:10:35.798Z,17.60
2018-10-18T12:13:04.155Z,17.40
2018-10-18T12:15:32.561Z,17.70
2018-10-18T12:18:01.008Z,17.60
2018-10-18T12:20:29.356Z,17.80
2018-10-18T12:22:57.749Z,17.60
2018-10-18T12:25:26.157Z,17.30
2018-10-18T12:27:54.639Z,17.20
2018-10-18T12:30:23.035Z,17.10
2018-10-18T12:32:51.425Z,16.90
2018-10-18T12:35:19.795Z,16.60
2018-10-18T12:37:48.184Z,16.50
2018-10-18T12:40:16.632Z,16.30
2018-10-18T12:42:46.366Z,16.20
2018-10-18T12:45:14.802Z,16.00
2018-10-18T12:47:43.269Z,15.80
2018-10-18T12:50:11.806Z,15.70
2018-10-18T12:52:40.129Z,15.80
2018-10-18T12:55:08.568Z,15.80
2018-10-18T12:57:37.025Z,16.10
2018-10-18T13:00:06.839Z,16.20
2018-10-18T13:02:35.263Z,16.10
2018-10-18T13:05:03.658Z,16.00
2018-10-18T13:07:32.112Z,15.90
2018-10-18T13:10:00.583Z,15.90
2018-10-18T13:12:29.223Z,15.90
2018-10-18T13:14:57.693Z,15.90
2018-10-18T13:17:26.128Z,15.70
2018-10-18T13:19:54.543Z,15.90
2018-10-18T13:22:22.955Z,15.90
2018-10-18T13:24:51.363Z,15.90
2018-10-18T13:27:19.797Z,16.00
2018-10-18T13:29:48.219Z,15.80
2018-10-18T13:32:16.883Z,15.50
2018-10-18T13:34:45.229Z,15.50
2018-10-18T13:37:13.835Z,15.50
2018-10-18T13:39:42.316Z,15.30
2018-10-18T13:42:10.751Z,15.50
2018-10-18T13:44:39.102Z,15.60
2018-10-18T13:47:07.569Z,15.70
2018-10-18T13:49:36.039Z,15.60
2018-10-18T13:52:04.456Z,15.40
2018-10-18T13:54:32.865Z,15.50
2018-10-18T13:57:01.363Z,15.50
2018-10-18T13:59:41.009Z,15.50
2018-10-18T14:02:09.401Z,15.50
2018-10-18T14:04:37.819Z,15.60
2018-10-18T14:07:06.212Z,15.60
2018-10-18T14:09:34.645Z,15.90
2018-10-18T14:12:03.088Z,15.70
2018-10-18T14:14:31.538Z,15.80
2018-10-18T14:16:59.973Z,15.80
2018-10-18T14:19:28.386Z,15.80
2018-10-18T14:21:56.944Z,15.80
2018-10-18T14:24:25.313Z,15.90
2018-10-18T14:26:53.740Z,15.90
2018-10-18T14:29:22.138Z,15.80
2018-10-18T14:31:50.550Z,16.00
2018-10-18T14:34:19.017Z,16.00
2018-10-18T14:36:47.473Z,16.10
2018-10-18T14:39:15.846Z,15.90
2018-10-18T14:41:44.258Z,16.00
2018-10-18T14:44:12.671Z,16.00
2018-10-18T14:46:41.073Z,15.90
2018-10-18T14:49:09.459Z,16.00
2018-10-18T14:51:37.990Z,16.10
2018-10-18T14:54:06.372Z,16.10
2018-10-18T14:56:34.729Z,16.10
2018-10-18T14:59:03.191Z,16.60
2018-10-18T15:01:31.543Z,15.80
2018-10-18T15:03:59.945Z,15.60
2018-10-18T15:06:28.355Z,15.40
2018-10-18T15:08:56.741Z,15.40
2018-10-18T15:11:25.130Z,15.50
2018-10-18T15:13:53.740Z,15.50
2018-10-18T15:16:22.148Z,15.50
2018-10-18T15:18:50.548Z,15.50
2018-10-18T15:21:18.963Z,15.50
2018-10-18T15:23:47.419Z,15.70
2018-10-18T15:26:15.821Z,15.50
2018-10-18T15:28:44.215Z,15.30
2018-10-18T15:31:12.651Z,15.30
2018-10-18T15:33:41.134Z,15.30
2018-10-18T15:36:09.530Z,15.10
2018-10-18T15:38:38.086Z,15.00
2018-10-18T15:41:06.550Z,14.80
2018-10-18T15:43:34.849Z,14.80
2018-10-18T15:46:03.279Z,14.70
2018-10-18T15:48:31.704Z,14.80
2018-10-18T15:51:00.156Z,14.70
2018-10-18T15:53:28.621Z,14.60
2018-10-18T15:55:57.237Z,14.50
2018-10-18T15:58:25.729Z,14.40
2018-10-18T16:00:54.090Z,14.40
2018-10-18T16:03:22.531Z,14.30
2018-10-18T16:05:50.952Z,14.20
2018-10-18T16:08:19.287Z,14.00
2018-10-18T16:10:47.680Z,14.00
2018-10-18T16:13:16.155Z,13.90
2018-10-18T16:15:44.542Z,13.80
2018-10-18T16:18:12.982Z,13.80
2018-10-18T16:20:41.374Z,13.70
2018-10-18T16:23:09.818Z,13.70
2018-10-18T16:25:38.288Z,13.60
2018-10-18T16:28:06.709Z,13.50
2018-10-18T16:30:35.118Z,13.60
2018-10-18T16:33:03.546Z,13.60
2018-10-18T16:35:31.986Z,13.60
2018-10-18T16:38:00.463Z,13.70
2018-10-18T16:40:28.890Z,13.60
2018-10-18T16:42:57.362Z,13.60
2018-10-18T16:45:25.733Z,13.50
2018-10-18T16:47:54.183Z,13.50
2018-10-18T16:50:22.512Z,13.40
2018-10-18T16:52:50.880Z,13.40
2018-10-18T16:55:19.303Z,13.30
2018-10-18T16:57:47.693Z,13.20
2018-10-18T17:00:16.217Z,13.30
2018-10-18T17:02:44.660Z,13.30
2018-10-18T17:05:13.073Z,13.10
2018-10-18T17:07:41.491Z,13.20
2018-10-18T17:10:10.056Z,13.20
2018-10-18T17:12:38.436Z,13.20
2018-10-18T17:15:07.145Z,13.20
2018-10-18T17:17:36.009Z,13.20
2018-10-18T17:20:04.629Z,13.20
2018-10-18T17:22:33.217Z,14.60
2018-10-18T17:25:01.679Z,13.10
2018-10-18T17:27:30.299Z,13.10
2018-10-18T17:29:58.609Z,13.00
2018-10-18T17:32:27.036Z,12.90
2018-10-18T17:34:55.403Z,12.70
2018-10-18T17:37:23.761Z,12.70
2018-10-18T17:39:52.260Z,12.70
2018-10-18T17:42:20.759Z,12.60
2018-10-18T17:44:49.102Z,12.60
2018-10-18T17:47:17.528Z,12.50
2018-10-18T17:49:45.865Z,12.50
2018-10-18T17:52:14.419Z,12.40
2018-10-18T17:54:42.832Z,12.50
2018-10-18T17:57:11.302Z,12.40
2018-10-18T17:59:39.694Z,12.40
2018-10-18T18:02:08.081Z,12.30
2018-10-18T18:04:36.842Z,12.20
2018-10-18T18:07:05.365Z,12.20
2018-10-18T18:09:33.793Z,12.20
2018-10-18T18:12:02.265Z,12.20
2018-10-18T18:14:30.681Z,12.10
2018-10-18T18:16:59.086Z,12.10
2018-10-18T18:19:27.460Z,12.00
2018-10-18T18:21:55.884Z,12.00
2018-10-18T18:24:24.322Z,11.90
2018-10-18T18:26:52.845Z,11.90
2018-10-18T18:29:21.238Z,11.90
2018-10-18T18:31:49.606Z,11.80
2018-10-18T18:34:18.058Z,12.00
2018-10-18T18:36:46.544Z,11.90
2018-10-18T18:39:14.902Z,12.00
2018-10-18T18:41:43.281Z,11.90
2018-10-18T18:44:11.644Z,11.80
2018-10-18T18:46:40.045Z,11.80
2018-10-18T18:49:08.394Z,11.80
2018-10-18T18:51:36.947Z,11.80
2018-10-18T18:54:05.452Z,11.80
2018-10-18T18:56:33.954Z,11.80
2018-10-18T18:59:02.388Z,11.70
2018-10-18T19:01:30.803Z,11.60
2018-10-18T19:03:59.154Z,11.70
2018-10-18T19:06:27.566Z,11.70
2018-10-18T19:08:55.941Z,11.60
2018-10-18T19:11:24.351Z,11.60
2018-10-18T19:13:52.757Z,11.50
2018-10-18T19:16:21.151Z,11.50
2018-10-18T19:18:49.804Z,11.40
2018-10-18T19:21:18.194Z,11.40
2018-10-18T19:23:46.644Z,11.40
2018-10-18T19:26:15.143Z,11.40
2018-10-18T19:28:43.781Z,11.30
2018-10-18T19:31:12.132Z,11.30
2018-10-18T19:33:40.426Z,11.20
2018-10-18T19:36:08.793Z,11.20
2018-10-18T19:38:37.281Z,11.20
2018-10-18T19:41:05.648Z,11.10
2018-10-18T19:43:34.005Z,11.00
2018-10-18T19:46:02.494Z,10.90
2018-10-18T19:48:30.817Z,10.90
2018-10-18T19:50:59.212Z,10.90
2018-10-18T19:53:27.653Z,10.70
2018-10-18T19:55:56.067Z,10.80
2018-10-18T19:58:24.492Z,10.70
2018-10-18T20:00:52.853Z,10.80
2018-10-18T20:03:21.214Z,10.70
2018-10-18T20:05:49.581Z,10.70
2018-10-18T20:08:18.006Z,10.60
2018-10-18T20:10:46.296Z,10.60
2018-10-18T20:13:14.842Z,10.60
2018-10-18T20:15:43.236Z,10.70
2018-10-18T20:18:11.701Z,10.70
2018-10-18T20:20:40.058Z,10.70
2018-10-18T20:23:08.423Z,10.60
2018-10-18T20:25:36.955Z,10.60
2018-10-18T20:28:05.818Z,10.50
2018-10-18T20:30:34.294Z,10.60
2018-10-18T20:33:02.786Z,10.50
2018-10-18T20:35:31.256Z,10.50
2018-10-18T20:37:59.618Z,10.40
2018-10-18T20:40:28.086Z,10.50
2018-10-18T20:42:56.498Z,10.50
2018-10-18T20:45:29.092Z,10.50
2018-10-18T20:47:57.901Z,10.40
2018-10-18T20:50:26.181Z,10.40
2018-10-18T20:52:54.566Z,10.30
2018-10-18T20:55:22.926Z,10.30
2018-10-18T20:57:51.273Z,10.30
2018-10-18T21:00:19.723Z,10.20
2018-10-18T21:02:48.087Z,10.20
2018-10-18T21:05:16.442Z,10.30
2018-10-18T21:07:44.994Z,10.20
2018-10-18T21:10:13.361Z,10.30
2018-10-18T21:12:41.744Z,10.30
2018-10-18T21:15:10.155Z,10.40
2018-10-18T21:17:38.606Z,10.50
2018-10-18T21:20:07.082Z,10.40
2018-10-18T21:22:35.418Z,10.40
2018-10-18T21:25:03.883Z,10.40
2018-10-18T21:27:32.329Z,10.40
2018-10-18T21:30:00.703Z,10.40
2018-10-18T21:32:29.083Z,10.40
2018-10-18T21:34:57.431Z,10.50
2018-10-18T21:37:25.872Z,10.50
2018-10-18T21:39:54.226Z,10.30
2018-10-18T21:42:22.592Z,10.30
2018-10-18T21:44:51.665Z,10.20
2018-10-18T21:47:20.149Z,10.30
2018-10-18T21:49:48.560Z,10.20
2018-10-18T21:52:16.908Z,10.20
2018-10-18T21:54:45.263Z,10.20
2018-10-18T21:57:13.778Z,10.00
2018-10-18T21:59:42.055Z,10.00
2018-10-18T22:02:10.517Z,9.90
2018-10-18T22:04:38.878Z,9.70
2018-10-18T22:07:07.219Z,9.70
2018-10-18T22:09:35.577Z,9.70
2018-10-18T22:12:03.930Z,9.60
2018-10-18T22:14:32.331Z,9.50
2018-10-18T22:17:00.792Z,9.50
2018-10-18T22:19:29.081Z,9.50
2018-10-18T22:21:57.467Z,9.40
2018-10-18T22:24:25.796Z,9.30
2018-10-18T22:26:54.234Z,9.20
2018-10-18T22:29:22.540Z,9.20
2018-10-18T22:31:50.893Z,9.00
2018-10-18T22:34:19.292Z,9.10
2018-10-18T22:36:47.602Z,9.10
2018-10-18T22:39:15.950Z,9.00
2018-10-18T22:41:44.340Z,9.00
2018-10-18T22:44:12.703Z,9.10
2018-10-18T22:46:41.003Z,9.00
2018-10-18T22:49:09.421Z,9.10
2018-10-18T22:51:37.795Z,9.10
2018-10-18T22:54:06.216Z,9.00
2018-10-18T22:56:34.753Z,9.00
2018-10-18T22:59:03.176Z,8.90
2018-10-18T23:01:31.426Z,8.80
2018-10-18T23:03:59.753Z,8.90
2018-10-18T23:06:28.121Z,8.90
2018-10-18T23:08:56.514Z,9.00
2018-10-18T23:11:24.898Z,8.90
2018-10-18T23:13:53.273Z,8.90
2018-10-18T23:16:21.596Z,9.00
2018-10-18T23:18:49.997Z,8.90
2018-10-18T23:21:18.327Z,8.80
2018-10-18T23:23:46.658Z,8.80
2018-10-18T23:26:15.068Z,8.70
2018-10-18T23:28:43.425Z,8.60
2018-10-18T23:31:11.766Z,8.50
2018-10-18T23:33:40.079Z,8.40
2018-10-18T23:36:08.392Z,8.50
2018-10-18T23:38:36.742Z,8.50
2018-10-18T23:41:05.739Z,8.50
2018-10-18T23:43:34.040Z,8.50
2018-10-18T23:46:02.365Z,8.50
2018-10-18T23:48:30.720Z,8.50
2018-10-18T23:50:59.053Z,8.50
2018-10-18T23:53:27.351Z,8.60
2018-10-18T23:55:55.689Z,8.60
2018-10-18T23:58:24.005Z,8.60
